createdAt,value
2018-03-24T00:00:05.531Z,2.80
2018-03-24T00:02:35.187Z,2.80
2018-03-24T00:05:04.749Z,2.40
2018-03-24T00:07:34.374Z,3.00
2018-03-24T00:10:03.934Z,2.67
2018-03-24T00:12:33.486Z,3.30
2018-03-24T00:15:03.133Z,3.17
2018-03-24T00:17:33.462Z,2.93
2018-03-24T00:20:03.882Z,2.70
2018-03-24T00:22:33.469Z,2.50
2018-03-24T00:25:03.029Z,2.73
2018-03-24T00:27:34.771Z,2.86
2018-03-24T00:30:05.101Z,2.73
2018-03-24T00:32:36.678Z,3.22
2018-03-24T00:35:06.242Z,2.97
2018-03-24T00:37:35.869Z,2.60
2018-03-24T00:40:05.557Z,2.90
2018-03-24T00:42:35.148Z,3.27
2018-03-24T00:45:05.986Z,3.30
2018-03-24T00:47:35.553Z,3.20
2018-03-24T00:50:05.960Z,2.90
2018-03-24T00:52:35.890Z,2.87
2018-03-24T00:55:06.336Z,3.60
2018-03-24T00:57:36.070Z,3.57
2018-03-24T01:00:05.697Z,3.80
2018-03-24T01:02:35.328Z,3.13
2018-03-24T01:05:06.453Z,3.03
2018-03-24T01:07:36.101Z,3.40
2018-03-24T01:10:05.778Z,2.95
2018-03-24T01:12:35.482Z,3.60
2018-03-24T01:15:05.100Z,3.77
2018-03-24T01:17:34.678Z,3.40
2018-03-24T01:20:05.082Z,3.53
2018-03-24T01:22:34.742Z,4.22
2018-03-24T01:25:04.317Z,3.50
2018-03-24T01:27:34.719Z,4.10
2018-03-24T01:30:04.357Z,4.20
2018-03-24T01:32:35.477Z,4.15
2018-03-24T01:35:05.066Z,4.93
2018-03-24T01:37:34.633Z,4.17
2018-03-24T01:40:05.057Z,4.53
2018-03-24T01:42:35.389Z,5.27
2018-03-24T01:45:05.793Z,5.47
2018-03-24T01:47:35.370Z,5.27
2018-03-24T01:50:04.934Z,5.90
2018-03-24T01:52:35.361Z,6.40
2018-03-24T01:55:05.129Z,5.53
2018-03-24T01:57:34.798Z,6.40
2018-03-24T02:00:05.297Z,5.60
2018-03-24T02:02:34.906Z,5.37
2018-03-24T02:05:05.667Z,4.73
2018-03-24T02:07:35.258Z,4.93
2018-03-24T02:10:04.844Z,4.93
2018-03-24T02:12:34.499Z,5.93
2018-03-24T02:15:04.066Z,5.50
2018-03-24T02:17:33.646Z,5.60
2018-03-24T02:20:03.365Z,6.57
2018-03-24T02:22:32.974Z,5.68
2018-03-24T02:25:04.219Z,6.40
2018-03-24T02:27:34.572Z,7.60
2018-03-24T02:30:04.270Z,7.03
2018-03-24T02:32:33.845Z,7.00
2018-03-24T02:35:03.427Z,6.83
2018-03-24T02:37:34.517Z,6.80
2018-03-24T02:40:04.865Z,6.50
2018-03-24T02:42:34.541Z,6.73
2018-03-24T02:45:04.169Z,6.60
2018-03-24T02:47:34.622Z,7.00
2018-03-24T02:50:05.186Z,6.47
2018-03-24T02:52:34.870Z,6.07
2018-03-24T02:55:04.437Z,5.87
2018-03-24T02:57:34.002Z,6.73
2018-03-24T03:00:04.961Z,6.50
2018-03-24T03:02:35.306Z,6.83
2018-03-24T03:05:04.984Z,5.75
2018-03-24T03:07:34.555Z,6.03
2018-03-24T03:10:07.077Z,7.30
2018-03-24T03:12:37.668Z,7.07
2018-03-24T03:15:09.189Z,6.27
2018-03-24T03:17:38.757Z,6.60
2018-03-24T03:20:08.591Z,6.70
2018-03-24T03:22:38.203Z,6.57
2018-03-24T03:25:09.017Z,6.20
2018-03-24T03:27:38.600Z,6.32
2018-03-24T03:33:09.396Z,6.33
2018-03-24T03:35:39.055Z,6.57
2018-03-24T03:38:08.665Z,6.35
2018-03-24T03:40:38.232Z,6.43
2018-03-24T03:43:07.870Z,6.30
2018-03-24T03:45:39.554Z,5.82
2018-03-24T03:48:09.180Z,5.47
2018-03-24T03:50:39.593Z,4.93
2018-03-24T03:53:09.234Z,5.93
2018-03-24T03:55:38.793Z,6.10
2018-03-24T03:58:08.457Z,5.00
2018-03-24T04:00:38.022Z,5.20
2018-03-24T04:03:07.596Z,4.80
2018-03-24T04:05:37.257Z,5.20
2018-03-24T04:08:06.822Z,3.95
2018-03-24T04:10:36.768Z,5.27
2018-03-24T04:13:07.734Z,4.90
2018-03-24T04:15:37.301Z,4.50
2018-03-24T04:18:07.037Z,5.10
2018-03-24T04:20:36.682Z,3.67
2018-03-24T04:23:07.009Z,4.80
2018-03-24T04:25:37.405Z,5.00
2018-03-24T04:28:06.988Z,3.83
2018-03-24T04:30:36.570Z,4.90
2018-03-24T04:33:07.024Z,4.40
2018-03-24T04:35:36.711Z,4.10
2018-03-24T04:38:07.125Z,4.33
2018-03-24T04:40:36.932Z,4.20
2018-03-24T04:43:06.590Z,4.50
2018-03-24T04:45:37.769Z,4.60
2018-03-24T04:48:07.426Z,4.77
2018-03-24T04:50:37.081Z,4.77
2018-03-24T04:53:06.696Z,5.25
2018-03-24T04:55:36.329Z,5.20
2018-03-24T04:58:08.777Z,4.80
2018-03-24T05:00:38.798Z,5.87
2018-03-24T05:03:10.629Z,5.17
2018-03-24T05:05:42.742Z,5.53
2018-03-24T05:08:12.644Z,5.00
2018-03-24T05:10:42.391Z,5.03
2018-03-24T05:13:11.993Z,4.30
2018-03-24T05:15:41.608Z,5.25
2018-03-24T05:18:12.145Z,4.82
2018-03-24T05:20:41.705Z,6.10
2018-03-24T05:23:12.472Z,4.87
2018-03-24T05:25:42.037Z,5.03
2018-03-24T05:28:11.622Z,5.40
2018-03-24T05:30:41.284Z,6.00
2018-03-24T05:33:10.847Z,5.07
2018-03-24T05:35:40.509Z,6.13
2018-03-24T05:38:10.154Z,5.63
2018-03-24T05:40:39.766Z,6.50
2018-03-24T05:43:09.405Z,5.87
2018-03-24T05:45:39.733Z,5.47
2018-03-24T05:48:10.594Z,6.00
2018-03-24T05:50:40.747Z,6.20
2018-03-24T05:53:10.384Z,5.57
2018-03-24T05:55:39.980Z,5.47
2018-03-24T05:58:09.705Z,6.62
2018-03-24T06:00:40.111Z,6.27
2018-03-24T06:03:09.680Z,6.37
2018-03-24T06:05:40.104Z,5.80
2018-03-24T06:08:10.447Z,6.33
2018-03-24T06:10:40.079Z,6.87
2018-03-24T06:13:09.650Z,6.32
2018-03-24T06:15:40.074Z,5.50
2018-03-24T06:18:09.732Z,6.72
2018-03-24T06:20:39.582Z,6.63
2018-03-24T06:23:10.550Z,6.63
2018-03-24T06:25:41.105Z,6.53
2018-03-24T06:28:10.796Z,6.60
2018-03-24T06:30:43.291Z,6.93
2018-03-24T06:33:12.987Z,6.57
2018-03-24T06:35:43.683Z,7.47
2018-03-24T06:38:14.243Z,7.47
2018-03-24T06:40:44.034Z,7.73
2018-03-24T06:43:13.708Z,6.22
2018-03-24T06:45:43.429Z,6.15
2018-03-24T06:48:13.098Z,6.53
2018-03-24T06:50:43.442Z,6.97
2018-03-24T06:53:13.912Z,6.13
2018-03-24T06:55:43.630Z,7.37
2018-03-24T06:58:13.423Z,7.33
2018-03-24T07:00:44.336Z,6.77
2018-03-24T07:03:14.826Z,6.87
2018-03-24T07:05:44.495Z,6.80
2018-03-24T07:08:15.014Z,5.90
2018-03-24T07:10:45.480Z,5.60
2018-03-24T07:13:15.189Z,5.57
2018-03-24T07:15:44.881Z,5.40
2018-03-24T07:18:15.365Z,6.57
2018-03-24T07:20:45.033Z,6.30
2018-03-24T07:23:14.741Z,7.03
2018-03-24T07:25:45.278Z,6.63
2018-03-24T07:28:14.957Z,5.67
2018-03-24T07:30:44.778Z,5.90
2018-03-24T07:33:16.470Z,6.50
2018-03-24T07:35:47.705Z,5.77
2018-03-24T07:38:17.419Z,7.17
2018-03-24T07:40:48.008Z,6.07
2018-03-24T07:43:17.810Z,7.72
2018-03-24T07:45:47.871Z,6.90
2018-03-24T07:48:17.614Z,6.87
2018-03-24T07:50:47.406Z,5.37
2018-03-24T07:53:17.918Z,6.67
2018-03-24T07:55:47.667Z,6.17
2018-03-24T07:58:18.384Z,6.53
2018-03-24T08:00:49.011Z,6.68
2018-03-24T08:03:19.725Z,6.30
2018-03-24T08:05:51.602Z,6.77
2018-03-24T08:08:21.259Z,6.10
2018-03-24T08:10:50.962Z,6.10
2018-03-24T08:13:21.444Z,6.40
2018-03-24T08:15:51.108Z,6.00
2018-03-24T08:18:22.395Z,7.07
2018-03-24T08:20:52.231Z,5.97
2018-03-24T08:23:22.423Z,7.13
2018-03-24T08:25:52.961Z,5.70
2018-03-24T08:28:23.206Z,5.68
2018-03-24T08:30:53.118Z,5.90
2018-03-24T08:33:22.981Z,6.33
2018-03-24T08:35:53.746Z,6.32
2018-03-24T08:38:23.560Z,5.75
2018-03-24T08:40:53.269Z,6.47
2018-03-24T08:43:24.577Z,5.67
2018-03-24T08:45:54.223Z,5.93
2018-03-24T08:48:24.760Z,6.93
2018-03-24T08:50:55.205Z,6.37
2018-03-24T08:53:24.948Z,6.20
2018-03-24T08:55:55.414Z,6.55
2018-03-24T08:58:25.217Z,5.50
2018-03-24T09:00:55.001Z,6.00
2018-03-24T09:03:25.068Z,6.60
2018-03-24T09:05:55.362Z,6.50
2018-03-24T09:08:26.095Z,5.60
2018-03-24T09:10:55.750Z,5.37
2018-03-24T09:13:26.294Z,5.77
2018-03-24T09:15:57.751Z,6.13
2018-03-24T09:18:28.382Z,5.17
2018-03-24T09:20:59.470Z,6.17
2018-03-24T09:23:29.207Z,5.97
2018-03-24T09:25:58.854Z,6.30
2018-03-24T09:28:29.420Z,5.57
2018-03-24T09:30:59.359Z,5.23
2018-03-24T09:33:30.389Z,5.63
2018-03-24T09:36:00.240Z,5.73
2018-03-24T09:38:29.974Z,5.57
2018-03-24T09:40:59.830Z,5.83
2018-03-24T09:43:29.634Z,5.53
2018-03-24T09:45:59.506Z,5.20
2018-03-24T09:48:29.137Z,5.18
2018-03-24T09:50:59.610Z,5.40
2018-03-24T09:53:30.722Z,5.70
2018-03-24T09:56:00.430Z,6.33
2018-03-24T09:58:30.869Z,6.07
2018-03-24T10:01:01.438Z,6.20
2018-03-24T10:03:31.394Z,5.80
2018-03-24T10:06:02.916Z,6.43
2018-03-24T10:08:33.588Z,4.97
2018-03-24T10:11:04.127Z,6.03
2018-03-24T10:13:33.797Z,6.07
2018-03-24T10:16:03.607Z,6.30
2018-03-24T10:18:33.237Z,6.30
2018-03-24T10:24:27.831Z,5.53
2018-03-24T10:26:57.514Z,5.40
2018-03-24T10:29:27.197Z,5.80
2018-03-24T10:31:56.836Z,7.43
2018-03-24T10:34:26.586Z,6.35
2018-03-24T10:36:56.269Z,7.87
2018-03-24T10:39:25.981Z,6.10
2018-03-24T10:41:55.709Z,7.17
2018-03-24T10:44:26.688Z,7.12
2018-03-24T10:46:56.552Z,6.57
2018-03-24T10:49:26.203Z,6.45
2018-03-24T10:51:55.830Z,6.50
2018-03-24T10:54:27.657Z,8.07
2018-03-24T10:56:58.134Z,8.63
2018-03-24T10:59:28.631Z,9.75
2018-03-24T11:01:58.454Z,7.60
2018-03-24T11:04:28.160Z,7.97
2018-03-24T11:06:57.938Z,7.53
2018-03-24T11:09:28.488Z,7.23
2018-03-24T11:11:58.279Z,6.97
2018-03-24T11:14:28.049Z,6.73
2018-03-24T11:16:57.887Z,8.23
2018-03-24T11:19:28.340Z,6.80
2018-03-24T11:21:58.192Z,7.20
2018-03-24T11:24:28.948Z,8.43
2018-03-24T11:26:59.954Z,7.40
2018-03-24T11:29:30.933Z,7.33
2018-03-24T11:32:02.387Z,7.57
2018-03-24T11:34:32.117Z,9.03
2018-03-24T11:37:02.646Z,7.95
2018-03-24T11:39:32.408Z,7.60
2018-03-24T11:42:03.175Z,7.70
2018-03-24T11:44:32.855Z,8.37
2018-03-24T11:47:02.745Z,7.83
2018-03-24T11:49:32.402Z,8.47
2018-03-24T11:52:02.440Z,7.90
2018-03-24T11:54:44.131Z,9.17
2018-03-24T11:57:13.885Z,8.63
2018-03-24T11:59:43.555Z,7.30
2018-03-24T12:02:13.256Z,7.90
2018-03-24T12:04:43.059Z,7.50
2018-03-24T12:07:12.725Z,9.43
2018-03-24T12:09:43.330Z,9.27
2018-03-24T12:12:12.982Z,8.77
2018-03-24T12:14:44.654Z,9.30
2018-03-24T12:17:14.358Z,10.13
2018-03-24T12:19:44.206Z,8.93
2018-03-24T12:22:15.262Z,8.33
2018-03-24T12:24:45.755Z,8.33
2018-03-24T12:27:15.576Z,8.13
2018-03-24T12:29:45.343Z,7.33
2018-03-24T12:32:15.101Z,8.52
2018-03-24T12:34:44.863Z,10.07
2018-03-24T12:37:15.414Z,7.33
2018-03-24T12:39:45.214Z,8.03
2018-03-24T12:42:14.921Z,6.72
2018-03-24T12:44:44.731Z,6.80
2018-03-24T12:47:14.800Z,6.43
2018-03-24T12:49:45.344Z,8.40
2018-03-24T12:52:15.628Z,8.30
2018-03-24T12:54:45.555Z,7.40
2018-03-24T12:57:15.779Z,6.33
2018-03-24T12:59:45.620Z,8.03
2018-03-24T13:02:16.108Z,8.07
2018-03-24T13:04:45.960Z,6.93
2018-03-24T13:07:16.407Z,6.70
2018-03-24T13:09:47.091Z,7.43
2018-03-24T13:12:16.670Z,6.40
2018-03-24T13:14:46.338Z,6.15
2018-03-24T13:17:15.904Z,7.07
2018-03-24T13:19:47.733Z,6.37
2018-03-24T13:22:17.568Z,7.30
2018-03-24T13:24:47.147Z,6.10
2018-03-24T13:27:16.724Z,6.30
2018-03-24T13:29:46.365Z,6.57
2018-03-24T13:32:16.042Z,7.10
2018-03-24T13:34:46.002Z,5.90
2018-03-24T13:37:15.769Z,6.90
2018-03-24T13:39:45.514Z,7.50
2018-03-24T13:42:15.130Z,7.20
2018-03-24T13:44:44.948Z,6.83
2018-03-24T13:47:14.596Z,7.17
2018-03-24T13:49:44.259Z,7.70
2018-03-24T13:52:15.582Z,7.63
2018-03-24T13:54:45.279Z,7.67
2018-03-24T13:57:14.900Z,7.73
2018-03-24T13:59:44.626Z,7.90
2018-03-24T14:02:14.202Z,6.07
2018-03-24T14:04:44.598Z,7.00
2018-03-24T14:07:14.216Z,6.73
2018-03-24T14:09:43.846Z,6.23
2018-03-24T14:12:14.169Z,6.37
2018-03-24T14:14:43.946Z,6.30
2018-03-24T14:17:13.515Z,7.57
2018-03-24T14:19:43.818Z,6.40
2018-03-24T14:22:14.217Z,6.97
2018-03-24T14:24:43.918Z,7.17
2018-03-24T14:27:13.558Z,6.77
2018-03-24T14:29:43.114Z,7.97
2018-03-24T14:32:12.781Z,7.37
2018-03-24T14:34:42.367Z,6.93
2018-03-24T14:37:12.230Z,8.20
2018-03-24T14:39:42.618Z,8.03
2018-03-24T14:42:12.182Z,7.03
2018-03-24T14:44:42.601Z,6.70
2018-03-24T14:47:13.118Z,6.55
2018-03-24T14:49:42.694Z,6.87
2018-03-24T14:52:12.488Z,7.70
2018-03-24T14:54:42.097Z,8.33
2018-03-24T14:57:11.810Z,8.17
2018-03-24T14:59:41.473Z,8.00
2018-03-24T15:02:11.085Z,7.60
2018-03-24T15:04:40.705Z,8.37
2018-03-24T15:07:10.389Z,7.50
2018-03-24T15:09:40.015Z,7.30
2018-03-24T15:12:09.581Z,7.55
2018-03-24T15:14:39.228Z,7.07
2018-03-24T15:17:08.887Z,8.63
2018-03-24T15:19:40.679Z,7.35
2018-03-24T15:22:10.447Z,8.97
2018-03-24T15:24:40.433Z,8.00
2018-03-24T15:27:10.403Z,7.63
2018-03-24T15:29:58.411Z,7.40
2018-03-24T15:38:16.278Z,8.10
2018-03-24T15:40:45.867Z,7.53
2018-03-24T15:43:15.450Z,8.30
2018-03-24T15:45:45.134Z,8.33
2018-03-24T15:48:14.742Z,7.07
2018-03-24T15:50:44.430Z,7.10
2018-03-24T15:53:14.198Z,7.30
2018-03-24T15:55:43.802Z,8.50
2018-03-24T15:58:13.692Z,7.43
2018-03-24T16:00:44.172Z,8.43
2018-03-24T16:03:13.953Z,9.30
2018-03-24T16:05:43.791Z,7.93
2018-03-24T16:08:13.514Z,8.13
2018-03-24T16:10:43.137Z,8.47
2018-03-24T16:13:12.715Z,8.97
2018-03-24T16:15:42.370Z,7.93
2018-03-24T16:18:12.140Z,8.53
2018-03-24T16:20:41.888Z,7.53
2018-03-24T16:23:11.589Z,7.97
2018-03-24T16:25:43.916Z,8.70
2018-03-24T16:28:14.347Z,8.60
2018-03-24T16:30:44.677Z,10.07
2018-03-24T16:33:15.137Z,7.80
2018-03-24T16:35:45.773Z,9.80
2018-03-24T16:38:15.500Z,8.50
2018-03-24T16:40:45.086Z,10.20
2018-03-24T16:43:14.693Z,10.15
2018-03-24T16:45:44.516Z,8.67
2018-03-24T16:48:14.077Z,8.68
2018-03-24T16:50:43.678Z,11.68
2018-03-24T16:53:13.359Z,10.23
2018-03-24T16:55:42.946Z,9.57
2018-03-24T16:58:14.749Z,10.10
2018-03-24T17:00:44.367Z,10.37
2018-03-24T17:03:14.270Z,9.63
2018-03-24T17:05:44.730Z,9.20
2018-03-24T17:08:14.385Z,9.30
2018-03-24T17:10:43.983Z,9.83
2018-03-24T17:13:14.531Z,8.77
2018-03-24T17:15:44.197Z,9.95
2018-03-24T17:18:13.890Z,10.83
2018-03-24T17:20:43.502Z,10.45
2018-03-24T17:23:13.079Z,9.53
2018-03-24T17:25:42.744Z,11.52
2018-03-24T17:28:12.326Z,12.13
2018-03-24T17:30:41.977Z,11.27
2018-03-24T17:33:11.746Z,12.00
2018-03-24T17:35:41.359Z,10.70
2018-03-24T17:38:10.974Z,9.63
2018-03-24T17:40:40.652Z,9.67
2018-03-24T17:43:11.102Z,10.97
2018-03-24T17:45:40.948Z,10.38
2018-03-24T17:48:11.654Z,10.60
2018-03-24T17:50:41.338Z,10.13
2018-03-24T17:53:11.927Z,10.25
2018-03-24T17:55:41.586Z,9.70
2018-03-24T17:58:12.799Z,10.80
2018-03-24T18:00:42.380Z,9.90
2018-03-24T18:03:11.978Z,11.73
2018-03-24T18:05:41.637Z,13.60
2018-03-24T18:08:11.250Z,11.07
2018-03-24T18:10:40.862Z,12.27
2018-03-24T18:13:10.553Z,12.53
2018-03-24T18:15:40.242Z,10.73
2018-03-24T18:18:10.047Z,10.60
2018-03-24T18:20:39.795Z,11.58
2018-03-24T18:23:09.734Z,12.30
2018-03-24T18:25:40.182Z,12.27
2018-03-24T18:28:09.885Z,11.02
2018-03-24T18:30:41.660Z,11.65
2018-03-24T18:33:11.245Z,13.47
2018-03-24T18:35:40.842Z,13.87
2018-03-24T18:38:10.506Z,13.03
2018-03-24T18:40:41.018Z,13.47
2018-03-24T18:43:12.071Z,12.63
2018-03-24T18:45:41.665Z,11.90
2018-03-24T18:48:11.427Z,12.07
2018-03-24T18:50:42.815Z,14.97
2018-03-24T18:53:12.525Z,12.90
2018-03-24T18:55:42.147Z,12.93
2018-03-24T18:58:11.749Z,12.55
2018-03-24T19:00:41.515Z,12.37
2018-03-24T19:03:12.498Z,13.63
2018-03-24T19:05:42.182Z,14.27
2018-03-24T19:08:11.856Z,13.83
2018-03-24T19:10:41.514Z,12.97
2018-03-24T19:13:11.114Z,13.90
2018-03-24T19:15:40.786Z,13.60
2018-03-24T19:18:10.446Z,12.93
2018-03-24T19:20:40.116Z,12.63
2018-03-24T19:23:09.686Z,13.65
2018-03-24T19:25:39.517Z,14.13
2018-03-24T19:28:09.093Z,13.83
2018-03-24T19:30:40.758Z,15.30
2018-03-24T19:33:10.356Z,13.60
2018-03-24T19:35:42.869Z,14.20
2018-03-24T19:38:16.270Z,13.73
2018-03-24T19:40:47.535Z,14.17
2018-03-24T19:43:17.133Z,15.13
2018-03-24T19:45:47.126Z,13.50
2018-03-24T19:48:16.778Z,15.43
2018-03-24T19:50:46.370Z,14.10
2018-03-24T19:53:16.041Z,13.47
2018-03-24T19:55:45.646Z,14.53
2018-03-24T19:58:17.768Z,14.30
2018-03-24T20:00:47.387Z,15.23
2018-03-24T20:03:17.018Z,13.97
2018-03-24T20:05:46.768Z,15.27
2018-03-24T20:08:16.925Z,16.15
2018-03-24T20:10:46.589Z,15.00
2018-03-24T20:13:16.215Z,16.77
2018-03-24T20:15:54.032Z,15.43
2018-03-24T20:18:25.559Z,15.73
2018-03-24T20:20:55.226Z,17.27
2018-03-24T20:23:25.614Z,14.93
2018-03-24T20:25:56.047Z,14.67
2018-03-24T20:28:25.855Z,15.33
2018-03-24T20:30:56.289Z,16.08
2018-03-24T20:33:25.919Z,15.67
2018-03-24T20:35:55.691Z,15.30
2018-03-24T20:38:25.441Z,15.47
2018-03-24T20:40:55.079Z,14.80
2018-03-24T20:43:24.692Z,14.35
2018-03-24T20:45:54.645Z,14.63
2018-03-24T20:48:25.964Z,15.30
2018-03-24T20:50:57.592Z,13.97
2018-03-24T20:53:27.165Z,20.17
2018-03-24T20:55:56.733Z,16.03
2018-03-24T20:58:26.381Z,15.20
2018-03-24T21:00:56.014Z,14.57
2018-03-24T21:03:26.346Z,14.77
2018-03-24T21:05:56.784Z,16.47
2018-03-24T21:08:26.365Z,16.00
2018-03-24T21:10:56.035Z,14.43
2018-03-24T21:13:25.733Z,15.05
2018-03-24T21:15:55.343Z,15.63
2018-03-24T21:18:25.328Z,14.90
2018-03-24T21:20:54.938Z,15.07
2018-03-24T21:23:26.622Z,14.87
2018-03-24T21:25:57.077Z,14.50
2018-03-24T21:28:26.638Z,15.80
2018-03-24T21:30:57.043Z,16.47
2018-03-24T21:33:26.609Z,16.20
2018-03-24T21:35:56.174Z,16.13
2018-03-24T21:38:25.841Z,18.50
2018-03-24T21:40:55.401Z,16.17
2018-03-24T21:43:24.967Z,14.57
2018-03-24T21:45:54.626Z,16.43
2018-03-24T21:48:24.362Z,16.47
2018-03-24T21:50:54.823Z,15.73
2018-03-24T21:53:25.091Z,16.60
2018-03-24T21:55:58.114Z,17.33
2018-03-24T21:58:28.200Z,15.13
2018-03-24T22:00:58.715Z,14.53
2018-03-24T22:03:28.341Z,16.90
2018-03-24T22:05:57.920Z,18.00
2018-03-24T22:08:27.549Z,14.82
2018-03-24T22:10:57.964Z,15.80
2018-03-24T22:13:27.672Z,14.87
2018-03-24T22:15:58.189Z,14.97
2018-03-24T22:18:27.947Z,15.50
2018-03-24T22:20:57.549Z,13.40
2018-03-24T22:23:27.198Z,14.02
2018-03-24T22:25:56.895Z,13.93
2018-03-24T22:28:26.629Z,15.03
2018-03-24T22:30:56.364Z,15.00
2018-03-24T22:33:26.779Z,15.00
2018-03-24T22:35:57.260Z,14.73
2018-03-24T22:38:26.962Z,13.50
2018-03-24T22:40:56.586Z,15.85
2018-03-24T22:43:26.243Z,14.00
2018-03-24T22:45:55.805Z,14.13
2018-03-24T22:48:25.367Z,14.17
2018-03-24T22:50:56.604Z,14.45
2018-03-24T22:53:26.162Z,14.73
2018-03-24T22:55:55.721Z,14.23
2018-03-24T22:58:25.363Z,12.50
2018-03-24T23:00:56.625Z,14.73
2018-03-24T23:03:26.253Z,13.00
2018-03-24T23:05:55.817Z,14.27
2018-03-24T23:08:26.142Z,15.00
2018-03-24T23:10:55.810Z,14.13
2018-03-24T23:13:25.621Z,13.25
2018-03-24T23:15:55.509Z,14.97
2018-03-24T23:18:25.837Z,13.77
2018-03-24T23:20:55.470Z,13.33
2018-03-24T23:23:25.905Z,13.93
2018-03-24T23:25:55.599Z,13.23
2018-03-24T23:28:25.209Z,13.07
2018-03-24T23:30:54.806Z,14.70
2018-03-24T23:33:26.602Z,14.27
2018-03-24T23:35:56.319Z,14.30
2018-03-24T23:38:25.993Z,13.13
2018-03-24T23:40:55.792Z,14.57
2018-03-24T23:43:25.480Z,14.27
2018-03-24T23:45:55.883Z,14.43
2018-03-24T23:48:25.450Z,15.67
2018-03-24T23:50:55.849Z,13.43
2018-03-24T23:53:25.641Z,13.90
2018-03-24T23:55:55.201Z,13.38
2018-03-24T23:58:24.853Z,14.60
